Brimfield, Indiana
Current Conditions -  °F | °C
As of 8:35 AM on Sunday 21 Dec 2014 (Local Time) from KGWB Reporting Station
Haze Haze  
Wind Chill: 30°   Ceiling: 6000
Heat Index: 30°   Visibility: 3mi
Dew Point: 28°   Wind: 0mph
Humidity: 93%   Direction: NA
Pressure: 30.28"   Gusts: NA
Location:  41.45°N, 85.4°W
Report Text: KGWB 211335Z AUTO 00000KT 3SM BR OVC060 M01/M02 A3028 RMK AO2
Loading
Personal Weather Stations






























Interactive Weather Map New forecast layout! Learn more

10-Day Weather Forecast

Advertisements
Track Severe Weather on mobile